createdAt,value
2017-05-16T00:00:09.404Z,12.45
2017-05-16T00:01:09.427Z,12.37
2017-05-16T00:02:09.152Z,12.35
2017-05-16T00:03:09.471Z,12.34
2017-05-16T00:04:09.501Z,12.32
2017-05-16T00:05:09.517Z,12.45
2017-05-16T00:07:24.182Z,12.54
2017-05-16T00:08:24.205Z,12.59
2017-05-16T00:09:09.610Z,12.5
2017-05-16T00:11:09.659Z,12.7
2017-05-16T00:12:09.715Z,12.68
2017-05-16T00:13:09.704Z,12.79
2017-05-16T00:14:09.727Z,12.56
2017-05-16T00:15:09.751Z,12.49
2017-05-16T00:16:09.470Z,12.35
2017-05-16T00:17:09.794Z,12.19
2017-05-16T00:18:09.820Z,12.19
2017-05-16T00:19:09.539Z,12.1
2017-05-16T00:20:09.864Z,12.05
2017-05-16T00:21:09.586Z,12.05
2017-05-16T00:23:09.940Z,12.02
2017-05-16T00:24:09.662Z,12.04
2017-05-16T00:25:24.596Z,12.2
2017-05-16T00:26:10.003Z,12.35
2017-05-16T00:27:09.727Z,12.24
2017-05-16T00:28:10.051Z,12.02
2017-05-16T00:29:24.689Z,11.98
2017-05-16T00:30:09.794Z,11.96
2017-05-16T00:31:10.121Z,11.94
2017-05-16T00:32:10.141Z,12.04
2017-05-16T00:33:09.859Z,11.98
2017-05-16T00:34:10.186Z,11.9
2017-05-16T00:35:10.211Z,12.07
2017-05-16T00:36:09.929Z,12.13
2017-05-16T00:37:10.258Z,12.09
2017-05-16T00:38:10.280Z,11.96
2017-05-16T00:39:10.305Z,11.79
2017-05-16T00:40:24.941Z,11.8
2017-05-16T00:41:24.964Z,11.79
2017-05-16T00:42:10.066Z,11.69
2017-05-16T00:43:10.393Z,11.61
2017-05-16T00:44:10.117Z,11.72
2017-05-16T00:45:25.055Z,11.64
2017-05-16T00:46:10.467Z,11.69
2017-05-16T00:47:10.181Z,11.57
2017-05-16T00:48:10.508Z,11.57
2017-05-16T00:49:10.227Z,11.54
2017-05-16T00:50:10.555Z,11.58
2017-05-16T00:51:10.273Z,11.42
2017-05-16T00:52:10.295Z,11.43
2017-05-16T00:53:10.628Z,11.44
2017-05-16T00:54:10.339Z,11.39
2017-05-16T00:55:10.668Z,11.4
2017-05-16T00:56:10.689Z,11.43
2017-05-16T00:57:10.414Z,11.35
2017-05-16T00:58:25.350Z,11.35
2017-05-16T00:59:10.759Z,11.36
2017-05-16T01:00:10.780Z,11.27
2017-05-16T01:01:25.431Z,11.35
2017-05-16T01:02:10.528Z,11.29
2017-05-16T01:03:10.849Z,11.25
2017-05-16T01:04:10.872Z,11.24
2017-05-16T01:05:10.893Z,11.33
2017-05-16T01:06:10.916Z,11.29
2017-05-16T01:07:10.938Z,11.33
2017-05-16T01:08:10.659Z,11.24
2017-05-16T01:09:10.984Z,11.27
2017-05-16T01:11:11.031Z,11.27
2017-05-16T01:12:10.750Z,11.21
2017-05-16T01:13:25.691Z,11.15
2017-05-16T01:14:11.097Z,11.17
2017-05-16T01:15:11.120Z,11.29
2017-05-16T01:16:11.140Z,11.43
2017-05-16T01:17:25.781Z,11.54
2017-05-16T01:18:11.187Z,11.58
2017-05-16T01:19:11.210Z,11.57
2017-05-16T01:20:11.232Z,11.57
2017-05-16T01:21:11.257Z,11.44
2017-05-16T01:22:11.277Z,11.47
2017-05-16T01:23:11.299Z,11.49
2017-05-16T01:24:11.322Z,11.44
2017-05-16T01:25:11.347Z,11.46
2017-05-16T01:26:11.064Z,11.46
2017-05-16T01:28:26.030Z,11.35
2017-05-16T01:29:11.436Z,11.37
2017-05-16T01:30:11.155Z,11.32
2017-05-16T01:31:11.480Z,11.36
2017-05-16T01:32:25.816Z,11.32
2017-05-16T01:33:11.526Z,11.29
2017-05-16T01:34:11.247Z,11.46
2017-05-16T01:35:11.572Z,11.57
2017-05-16T01:36:11.595Z,11.58
2017-05-16T01:37:11.617Z,11.47
2017-05-16T01:38:11.637Z,11.44
2017-05-16T01:39:11.667Z,11.29
2017-05-16T01:41:11.708Z,11.03
2017-05-16T01:42:11.728Z,11.03
2017-05-16T01:43:11.750Z,11.07
2017-05-16T01:44:26.390Z,10.88
2017-05-16T01:45:26.412Z,10.94
2017-05-16T01:46:11.515Z,10.91
2017-05-16T01:47:11.843Z,10.92
2017-05-16T01:48:11.864Z,10.94
2017-05-16T01:49:11.936Z,10.99
2017-05-16T01:50:11.907Z,11.04
2017-05-16T01:51:11.930Z,11.07
2017-05-16T01:52:11.951Z,11.1
2017-05-16T01:53:11.974Z,11.09
2017-05-16T01:54:11.996Z,11.17
2017-05-16T01:55:12.020Z,11.15
2017-05-16T01:56:12.042Z,11.15
2017-05-16T01:59:26.422Z,11.29
2017-05-16T02:00:26.444Z,11.33
2017-05-16T02:01:12.159Z,11.33
2017-05-16T02:02:12.176Z,11.24
2017-05-16T02:03:12.197Z,11.28
2017-05-16T02:05:12.244Z,11.49
2017-05-16T02:06:12.267Z,11.55
2017-05-16T02:07:11.985Z,11.51
2017-05-16T02:08:12.316Z,11.37
2017-05-16T02:09:12.334Z,11.24
2017-05-16T02:10:12.356Z,11.22
2017-05-16T02:11:12.072Z,11.1
2017-05-16T02:12:12.400Z,11.04
2017-05-16T02:14:12.344Z,10.91
2017-05-16T02:16:26.803Z,10.84
2017-05-16T02:17:12.515Z,10.96
2017-05-16T02:18:12.531Z,10.84
2017-05-16T02:19:12.250Z,10.92
2017-05-16T02:20:27.192Z,10.94
2017-05-16T02:21:12.298Z,10.91
2017-05-16T02:22:12.318Z,11.04
2017-05-16T02:23:12.645Z,11.02
2017-05-16T02:24:12.670Z,10.99
2017-05-16T02:26:12.711Z,10.92
2017-05-16T02:28:12.759Z,10.91
2017-05-16T02:29:12.481Z,10.86
2017-05-16T02:30:12.497Z,10.86
2017-05-16T02:31:12.872Z,10.89
2017-05-16T02:32:12.541Z,10.84
2017-05-16T02:33:12.868Z,10.89
2017-05-16T02:34:12.585Z,10.88
2017-05-16T02:35:12.914Z,10.91
2017-05-16T02:36:27.246Z,10.81
2017-05-16T02:37:12.960Z,10.89
2017-05-16T02:38:12.981Z,10.96
2017-05-16T02:39:13.000Z,10.89
2017-05-16T02:40:13.020Z,10.89
2017-05-16T02:41:12.742Z,10.91
2017-05-16T02:42:13.067Z,11.06
2017-05-16T02:43:13.137Z,11.07
2017-05-16T02:44:12.810Z,11.06
2017-05-16T02:45:12.828Z,11.04
2017-05-16T02:46:13.155Z,10.94
2017-05-16T02:47:27.794Z,10.97
2017-05-16T02:48:27.511Z,10.94
2017-05-16T02:49:13.225Z,10.97
2017-05-16T02:50:13.246Z,10.89
2017-05-16T02:51:12.961Z,10.94
2017-05-16T02:52:27.904Z,10.91
2017-05-16T02:53:13.313Z,10.89
2017-05-16T02:54:13.337Z,10.96
2017-05-16T02:55:13.405Z,11.04
2017-05-16T02:56:13.074Z,11.11
2017-05-16T02:57:13.400Z,11.09
2017-05-16T02:58:13.421Z,11.03
2017-05-16T02:59:13.447Z,11.07
2017-05-16T03:00:13.465Z,11.09
2017-05-16T03:01:13.494Z,10.97
2017-05-16T03:02:13.509Z,11.07
2017-05-16T03:03:13.532Z,10.94
2017-05-16T03:04:13.553Z,10.91
2017-05-16T03:05:13.580Z,10.97
2017-05-16T03:06:13.294Z,10.89
2017-05-16T03:07:27.934Z,10.84
2017-05-16T03:08:13.643Z,10.97
2017-05-16T03:09:13.668Z,10.91
2017-05-16T03:10:13.688Z,10.92
2017-05-16T03:11:13.709Z,11
2017-05-16T03:12:13.429Z,11
2017-05-16T03:13:13.754Z,10.96
2017-05-16T03:14:13.774Z,11
2017-05-16T03:15:13.797Z,10.96
2017-05-16T03:16:13.819Z,10.97
2017-05-16T03:18:13.866Z,11.03
2017-05-16T03:19:13.887Z,10.94
2017-05-16T03:20:28.220Z,10.97
2017-05-16T03:21:13.932Z,11.02
2017-05-16T03:22:13.649Z,11.02
2017-05-16T03:23:13.976Z,11.1
2017-05-16T03:24:13.743Z,11.02
2017-05-16T03:25:14.017Z,11.09
2017-05-16T03:26:14.041Z,11.06
2017-05-16T03:27:14.072Z,11.09
2017-05-16T03:28:14.085Z,11.1
2017-05-16T03:29:14.110Z,11.11
2017-05-16T03:30:14.134Z,11.19
2017-05-16T03:31:14.209Z,11.22
2017-05-16T03:32:14.177Z,11.24
2017-05-16T03:33:14.203Z,11.37
2017-05-16T03:34:28.531Z,11.37
2017-05-16T03:35:14.237Z,11.33
2017-05-16T03:36:14.261Z,11.28
2017-05-16T03:37:13.980Z,11.35
2017-05-16T03:38:14.304Z,11.44
2017-05-16T03:39:28.640Z,11.46
2017-05-16T03:40:14.348Z,11.55
2017-05-16T03:41:14.372Z,11.58
2017-05-16T03:42:14.394Z,11.65
2017-05-16T03:43:14.417Z,11.72
2017-05-16T03:44:14.439Z,11.76
2017-05-16T03:45:14.461Z,11.73
2017-05-16T03:46:14.482Z,11.79
2017-05-16T03:47:14.504Z,11.82
2017-05-16T03:48:14.529Z,11.69
2017-05-16T03:49:14.550Z,11.91
2017-05-16T03:50:14.573Z,11.73
2017-05-16T03:51:29.210Z,11.79
2017-05-16T03:52:14.618Z,11.8
2017-05-16T03:53:29.253Z,11.82
2017-05-16T03:54:14.659Z,11.78
2017-05-16T03:55:29.300Z,11.8
2017-05-16T03:56:14.404Z,11.82
2017-05-16T03:57:14.726Z,11.78
2017-05-16T03:58:14.752Z,11.82
2017-05-16T03:59:14.771Z,11.79
2017-05-16T04:00:14.793Z,11.79
2017-05-16T04:01:14.816Z,11.82
2017-05-16T04:02:14.840Z,11.95
2017-05-16T04:03:14.863Z,11.98
2017-05-16T04:04:14.883Z,12.01
2017-05-16T04:05:14.907Z,11.94
2017-05-16T04:06:14.625Z,11.98
2017-05-16T04:07:14.958Z,12.04
2017-05-16T04:08:14.975Z,12.1
2017-05-16T04:09:14.997Z,12.05
2017-05-16T04:10:15.023Z,12.14
2017-05-16T04:11:29.657Z,12.16
2017-05-16T04:12:15.062Z,12.17
2017-05-16T04:13:14.786Z,12.17
2017-05-16T04:14:14.807Z,12.16
2017-05-16T04:15:15.134Z,12.14
2017-05-16T04:16:15.161Z,12.05
2017-05-16T04:17:15.176Z,12.09
2017-05-16T04:18:15.203Z,11.98
2017-05-16T04:19:15.221Z,12.04
2017-05-16T04:20:15.244Z,12.14
2017-05-16T04:22:15.289Z,12.21
2017-05-16T04:23:15.316Z,12.19
2017-05-16T04:24:29.950Z,12.27
2017-05-16T04:25:15.059Z,12.28
2017-05-16T04:26:15.380Z,12.37
2017-05-16T04:27:30.020Z,12.34
2017-05-16T04:28:15.427Z,12.39
2017-05-16T04:29:15.449Z,12.34
2017-05-16T04:30:15.470Z,12.39
2017-05-16T04:31:15.500Z,12.39
2017-05-16T04:32:15.214Z,12.45
2017-05-16T04:33:15.236Z,12.5
2017-05-16T04:34:15.261Z,12.47
2017-05-16T04:36:15.609Z,12.47
2017-05-16T04:37:15.328Z,12.52
2017-05-16T04:38:15.350Z,12.5
2017-05-16T04:39:15.676Z,12.53
2017-05-16T04:40:30.315Z,12.5
2017-05-16T04:41:15.421Z,12.45
2017-05-16T04:42:30.364Z,12.41
2017-05-16T04:43:15.770Z,12.41
2017-05-16T04:44:15.491Z,12.45
2017-05-16T04:45:15.814Z,12.47
2017-05-16T04:46:15.533Z,12.46
2017-05-16T04:47:15.556Z,12.47
2017-05-16T04:48:15.890Z,12.46
2017-05-16T04:49:15.905Z,12.6
2017-05-16T04:50:15.626Z,12.56
2017-05-16T04:52:15.975Z,13.03
2017-05-16T04:53:16.000Z,13.32
2017-05-16T04:54:15.718Z,13.73
2017-05-16T04:55:16.046Z,14.5
2017-05-16T04:56:15.766Z,15.46
2017-05-16T04:57:16.093Z,16.38
2017-05-16T04:58:15.816Z,17.06
2017-05-16T04:59:16.138Z,17.58
2017-05-16T05:00:16.166Z,18.42
2017-05-16T05:01:16.191Z,19
2017-05-16T05:02:15.910Z,19.59
2017-05-16T05:03:16.300Z,19.65
2017-05-16T05:04:16.268Z,19.8
2017-05-16T05:05:16.294Z,19.95
2017-05-16T05:06:16.013Z,20.59
2017-05-16T05:08:16.372Z,21.83
2017-05-16T05:09:16.416Z,22.14
2017-05-16T05:10:31.040Z,22.77
2017-05-16T05:11:31.069Z,23.28
2017-05-16T05:12:16.479Z,23.68
2017-05-16T05:13:16.204Z,23.53
2017-05-16T05:14:31.152Z,23.7
2017-05-16T05:15:16.563Z,23.72
2017-05-16T05:16:16.591Z,23.55
2017-05-16T05:17:16.621Z,23.7
2017-05-16T05:18:16.345Z,23.83
2017-05-16T05:20:16.713Z,24.27
2017-05-16T05:21:16.734Z,24.61
2017-05-16T05:22:16.462Z,24.57
2017-05-16T05:23:16.498Z,24.69
2017-05-16T05:24:31.448Z,24.85
2017-05-16T05:26:16.889Z,24.78
2017-05-16T05:27:16.920Z,24.81
2017-05-16T05:28:16.649Z,24.71
2017-05-16T05:29:16.983Z,24.77
2017-05-16T05:30:31.634Z,25.57
2017-05-16T05:31:17.046Z,26.07
2017-05-16T05:32:16.779Z,26.51
2017-05-16T05:33:16.809Z,26.88
2017-05-16T05:34:17.142Z,27.17
2017-05-16T05:35:17.172Z,27.7
2017-05-16T05:36:16.901Z,27.7
2017-05-16T05:37:17.238Z,27.21
2017-05-16T05:38:17.276Z,27
2017-05-16T05:40:17.338Z,25
2017-05-16T05:41:17.368Z,24.53
2017-05-16T05:42:32.020Z,24.27
2017-05-16T05:43:17.435Z,24.18
2017-05-16T05:44:17.467Z,24.12
2017-05-16T05:45:17.192Z,23.43
2017-05-16T05:46:32.146Z,22.8
2017-05-16T05:47:17.605Z,22.79
2017-05-16T05:48:17.590Z,23.12
2017-05-16T05:49:17.319Z,23.4
2017-05-16T05:50:17.652Z,23.47
2017-05-16T05:51:17.378Z,24.31
2017-05-16T05:52:17.714Z,24.52
2017-05-16T05:54:17.775Z,25.27
2017-05-16T05:55:17.819Z,25.5
2017-05-16T05:56:17.533Z,25.3
2017-05-16T05:57:17.565Z,25.28
2017-05-16T05:58:32.214Z,24.47
2017-05-16T05:59:17.937Z,23.95
2017-05-16T06:00:17.963Z,23.48
2017-05-16T06:01:17.687Z,23.2
2017-05-16T06:02:32.641Z,23.16
2017-05-16T06:03:18.055Z,23.2
2017-05-16T06:04:18.086Z,22.94
2017-05-16T06:05:18.116Z,22.92
2017-05-16T06:06:18.145Z,22.75
2017-05-16T06:07:18.173Z,22.45
2017-05-16T06:08:18.204Z,22.36
2017-05-16T06:09:17.929Z,22.3
2017-05-16T06:11:17.989Z,22.09
2017-05-16T06:12:18.322Z,22.02
2017-05-16T06:14:18.381Z,22.1
2017-05-16T06:15:17.802Z,22.09
2017-05-16T06:16:18.441Z,22.12
2017-05-16T06:17:33.089Z,22.07
2017-05-16T06:18:18.193Z,21.86
2017-05-16T06:19:18.524Z,21.91
2017-05-16T06:20:18.249Z,22.09
2017-05-16T06:21:18.583Z,22.06
2017-05-16T06:22:18.609Z,22.43
2017-05-16T06:23:18.638Z,22.45
2017-05-16T06:24:18.363Z,22.57
2017-05-16T06:25:18.393Z,22.8
2017-05-16T06:27:18.448Z,23.16
2017-05-16T06:28:18.482Z,23.16
2017-05-16T06:29:33.428Z,23.15
2017-05-16T06:30:33.456Z,23.36
2017-05-16T06:31:18.568Z,23.33
2017-05-16T06:32:18.896Z,23.39
2017-05-16T06:33:18.926Z,23.47
2017-05-16T06:34:18.952Z,23.53
2017-05-16T06:35:18.984Z,23.33
2017-05-16T06:36:19.022Z,23.36
2017-05-16T06:37:19.040Z,23.16
2017-05-16T06:38:18.467Z,23.05
2017-05-16T06:39:18.799Z,23.33
2017-05-16T06:40:19.131Z,23.54
2017-05-16T06:41:19.159Z,23.72
2017-05-16T06:42:19.185Z,23.98
2017-05-16T06:43:19.222Z,24.18
2017-05-16T06:44:33.864Z,24.3
2017-05-16T06:45:33.588Z,24.18
2017-05-16T06:46:18.695Z,24.42
2017-05-16T06:47:19.331Z,24.32
2017-05-16T06:48:19.364Z,23.83
2017-05-16T06:49:34.009Z,23.51
2017-05-16T06:50:19.421Z,23.47
2017-05-16T06:51:19.449Z,23.31
2017-05-16T06:52:19.173Z,23.55
2017-05-16T06:53:19.511Z,23.76
2017-05-16T06:54:19.536Z,23.76
2017-05-16T06:55:19.260Z,23.75
2017-05-16T06:56:19.598Z,23.79
2017-05-16T06:57:19.624Z,23.83
2017-05-16T06:58:19.650Z,23.91
2017-05-16T06:59:19.682Z,23.57
2017-05-16T07:00:19.716Z,23.66
2017-05-16T07:01:19.740Z,23.48
2017-05-16T07:02:34.386Z,23.55
2017-05-16T07:03:34.413Z,23.51
2017-05-16T07:04:19.826Z,23.58
2017-05-16T07:05:34.170Z,23.72
2017-05-16T07:06:19.882Z,23.76
2017-05-16T07:07:19.911Z,23.85
2017-05-16T07:08:19.941Z,23.78
2017-05-16T07:09:19.969Z,23.73
2017-05-16T07:11:20.064Z,23.72
2017-05-16T07:13:20.088Z,23.78
2017-05-16T07:15:19.842Z,22.98
2017-05-16T07:16:20.169Z,23.02
2017-05-16T07:17:34.815Z,23.16
2017-05-16T07:18:20.225Z,23.28
2017-05-16T07:19:20.277Z,23.33
2017-05-16T07:20:20.287Z,23.46
2017-05-16T07:21:34.930Z,23.54
2017-05-16T07:22:20.338Z,23.51
2017-05-16T07:23:20.369Z,23.48
2017-05-16T07:24:20.396Z,23.38
2017-05-16T07:25:20.423Z,23.43
2017-05-16T07:26:20.150Z,23.43
2017-05-16T07:27:20.485Z,23.6
2017-05-16T07:28:20.509Z,23.6
2017-05-16T07:29:20.538Z,23.7
2017-05-16T07:30:20.568Z,23.84
2017-05-16T07:31:20.601Z,23.87
2017-05-16T07:32:20.623Z,24.06
2017-05-16T07:33:20.656Z,23.94
2017-05-16T07:34:35.297Z,23.93
2017-05-16T07:35:20.758Z,23.9
2017-05-16T07:36:20.737Z,23.9
2017-05-16T07:37:35.385Z,23.98
2017-05-16T07:38:20.796Z,24.2
2017-05-16T07:39:20.822Z,24.13
2017-05-16T07:40:20.858Z,24.05
2017-05-16T07:41:20.879Z,23.87
2017-05-16T07:42:20.908Z,24.03
2017-05-16T07:43:20.942Z,24.15
2017-05-16T07:46:21.027Z,25.06
2017-05-16T07:47:21.054Z,25.05
2017-05-16T07:48:35.701Z,25.17
2017-05-16T07:49:21.112Z,25.25
2017-05-16T07:50:21.142Z,25.23
2017-05-16T07:51:21.174Z,25.3
2017-05-16T07:52:35.821Z,25.7
2017-05-16T07:53:21.236Z,25.92
2017-05-16T07:54:21.261Z,26.39
2017-05-16T07:55:21.294Z,26.39
2017-05-16T07:56:21.319Z,26.55
2017-05-16T07:57:21.352Z,26.82
2017-05-16T07:58:21.380Z,26.81
2017-05-16T07:59:36.032Z,26.88
2017-05-16T08:00:21.441Z,26.77
2017-05-16T08:01:21.471Z,26.69
2017-05-16T08:02:21.505Z,26.7
2017-05-16T08:03:36.154Z,26.7
2017-05-16T08:04:21.573Z,26.95
2017-05-16T08:05:35.910Z,27.03
2017-05-16T08:06:21.625Z,26.97
2017-05-16T08:07:21.657Z,26.82
2017-05-16T08:08:21.690Z,26.85
2017-05-16T08:09:21.718Z,26.6
2017-05-16T08:10:21.751Z,26.67
2017-05-16T08:11:21.779Z,26.8
2017-05-16T08:12:21.810Z,26.72
2017-05-16T08:13:21.846Z,26.7
2017-05-16T08:14:21.887Z,26.88
2017-05-16T08:15:21.902Z,27.03
2017-05-16T08:16:21.937Z,27.27
2017-05-16T08:17:21.966Z,27.36
2017-05-16T08:18:22.001Z,27.39
2017-05-16T08:19:22.034Z,27.5
2017-05-16T08:20:36.676Z,27.28
2017-05-16T08:21:22.089Z,27.25
2017-05-16T08:22:22.123Z,26.99
2017-05-16T08:23:22.152Z,26.67
2017-05-16T08:24:36.496Z,26.43
2017-05-16T08:25:22.212Z,26.63
2017-05-16T08:26:22.244Z,26.55
2017-05-16T08:27:22.282Z,26.39
2017-05-16T08:28:22.002Z,26.23
2017-05-16T08:29:22.337Z,26.05
2017-05-16T08:30:22.066Z,26.09
2017-05-16T08:31:22.397Z,25.99
2017-05-16T08:33:22.458Z,25.7
2017-05-16T08:34:22.493Z,25.8
2017-05-16T08:35:22.523Z,26.01
2017-05-16T08:36:37.168Z,26.6
2017-05-16T08:37:22.580Z,26.5
2017-05-16T08:38:37.228Z,26.44
2017-05-16T08:40:37.291Z,26.57
2017-05-16T08:41:22.703Z,26.8
2017-05-16T08:42:22.734Z,26.63
2017-05-16T08:43:22.764Z,26.69
2017-05-16T08:44:22.793Z,27.06
2017-05-16T08:45:22.824Z,26.84
2017-05-16T08:46:22.855Z,26.6
2017-05-16T08:47:22.885Z,26.72
2017-05-16T08:49:22.947Z,26.88
2017-05-16T08:50:37.597Z,26.88
2017-05-16T08:51:23.019Z,26.89
2017-05-16T08:52:37.657Z,26.94
2017-05-16T08:53:22.765Z,27.12
2017-05-16T08:54:23.103Z,26.94
2017-05-16T08:55:23.133Z,26.81
2017-05-16T08:56:37.476Z,26.91
2017-05-16T08:57:23.206Z,26.62
2017-05-16T08:58:23.283Z,26.48
2017-05-16T08:59:23.253Z,26.45
2017-05-16T09:00:22.981Z,26.2
2017-05-16T09:01:23.331Z,26.05
2017-05-16T09:02:23.344Z,25.91
2017-05-16T09:03:23.389Z,25.95
2017-05-16T09:05:23.438Z,26.3
2017-05-16T09:06:23.466Z,26.2
2017-05-16T09:07:23.505Z,26.07
2017-05-16T09:08:38.144Z,26.28
2017-05-16T09:09:23.559Z,26.09
2017-05-16T09:10:23.618Z,26.26
2017-05-16T09:11:23.622Z,26.21
2017-05-16T09:12:38.268Z,26.32
2017-05-16T09:13:23.685Z,25.99
2017-05-16T09:14:23.712Z,25.97
2017-05-16T09:15:23.435Z,26.09
2017-05-16T09:16:23.771Z,26.39
2017-05-16T09:17:23.799Z,25.88
2017-05-16T09:18:23.830Z,25.58
2017-05-16T09:19:23.860Z,25.43
2017-05-16T09:20:23.891Z,25.45
2017-05-16T09:23:23.983Z,25.73
2017-05-16T09:24:24.009Z,25.75
2017-05-16T09:25:24.040Z,25.38
2017-05-16T09:26:24.077Z,25.43
2017-05-16T09:27:38.418Z,25.58
2017-05-16T09:28:24.132Z,25.36
2017-05-16T09:29:24.166Z,25.6
2017-05-16T09:30:24.190Z,25.39
2017-05-16T09:31:24.222Z,25.61
2017-05-16T09:32:24.248Z,25.69
2017-05-16T09:33:24.281Z,25.73
2017-05-16T09:34:24.310Z,25.8
2017-05-16T09:35:24.340Z,26.02
2017-05-16T09:36:24.372Z,25.88
2017-05-16T09:37:24.400Z,25.45
2017-05-16T09:38:24.430Z,25.23
2017-05-16T09:39:39.077Z,25.27
2017-05-16T09:40:39.108Z,24.96
2017-05-16T09:41:24.218Z,24.53
2017-05-16T09:42:24.557Z,24.4
2017-05-16T09:43:24.581Z,24.13
2017-05-16T09:44:24.618Z,23.76
2017-05-16T09:45:24.639Z,23.65
2017-05-16T09:46:24.669Z,23.58
2017-05-16T09:47:24.394Z,23.75
2017-05-16T09:48:24.423Z,24
2017-05-16T09:49:24.760Z,23.97
2017-05-16T09:53:24.873Z,24.76
2017-05-16T09:54:24.906Z,25.08
2017-05-16T09:55:39.550Z,25.2
2017-05-16T09:56:24.965Z,25.25
2017-05-16T09:57:24.994Z,24.93
2017-05-16T09:58:25.024Z,24.67
2017-05-16T09:59:39.669Z,24.69
2017-05-16T10:00:25.081Z,24.52
2017-05-16T10:01:25.107Z,24.46
2017-05-16T10:02:25.136Z,24.55
2017-05-16T10:03:25.166Z,24.35
2017-05-16T10:05:25.226Z,24.15
2017-05-16T10:06:24.949Z,24.27
2017-05-16T10:08:25.017Z,24.42
2017-05-16T10:09:25.343Z,24.5
2017-05-16T10:10:25.372Z,24.5
2017-05-16T10:11:40.019Z,24.42
2017-05-16T10:12:25.436Z,24.25
2017-05-16T10:13:25.474Z,24.13
2017-05-16T10:14:25.503Z,23.76
2017-05-16T10:15:40.136Z,22.76
2017-05-16T10:16:25.558Z,22.27
2017-05-16T10:17:25.575Z,22.1
2017-05-16T10:18:25.614Z,21.68
2017-05-16T10:19:25.633Z,21.59
2017-05-16T10:20:25.659Z,21.52
2017-05-16T10:21:25.389Z,22.02
2017-05-16T10:22:25.720Z,22.22
2017-05-16T10:23:25.753Z,22.42
2017-05-16T10:24:25.780Z,22.02
2017-05-16T10:25:25.501Z,21.67
2017-05-16T10:26:25.833Z,21.59
2017-05-16T10:27:40.480Z,21.92
2017-05-16T10:28:25.895Z,22.27
2017-05-16T10:29:25.617Z,22.49
2017-05-16T10:30:25.644Z,22.64
2017-05-16T10:31:40.594Z,22.68
2017-05-16T10:32:26.021Z,22.77
2017-05-16T10:33:25.728Z,22.76
2017-05-16T10:34:25.760Z,22.54
2017-05-16T10:36:25.821Z,22.91
2017-05-16T10:37:25.843Z,22.9
2017-05-16T10:39:26.203Z,23.4
2017-05-16T10:41:25.958Z,23.02
2017-05-16T10:42:40.908Z,22.95
2017-05-16T10:43:40.934Z,23.01
2017-05-16T10:44:26.351Z,23.07
2017-05-16T10:45:26.379Z,23.31
2017-05-16T10:46:26.402Z,23.5
2017-05-16T10:47:41.050Z,23.79
2017-05-16T10:48:26.459Z,23.51
2017-05-16T10:49:26.488Z,23.61
2017-05-16T10:50:26.513Z,23.47
2017-05-16T10:51:26.240Z,23.47
2017-05-16T10:52:26.271Z,23.58
2017-05-16T10:53:26.297Z,23.58
2017-05-16T10:54:26.327Z,23.54
2017-05-16T10:55:26.659Z,23.43
2017-05-16T10:57:26.418Z,23.1
2017-05-16T10:58:26.442Z,23.33
2017-05-16T10:59:26.470Z,23
2017-05-16T11:00:26.803Z,23
2017-05-16T11:01:26.527Z,22.68
2017-05-16T11:02:41.529Z,22.33
2017-05-16T11:03:26.633Z,22.25
2017-05-16T11:04:26.916Z,22.27
2017-05-16T11:05:26.942Z,22.24
2017-05-16T11:06:26.667Z,22.45
2017-05-16T11:07:27.003Z,22.88
2017-05-16T11:08:27.028Z,22.92
2017-05-16T11:09:27.059Z,22.73
2017-05-16T11:11:27.114Z,22.28
2017-05-16T11:12:27.144Z,21.9
2017-05-16T11:13:27.173Z,21.35
2017-05-16T11:14:27.205Z,21.46
2017-05-16T11:15:41.844Z,21.62
2017-05-16T11:16:27.259Z,21.44
2017-05-16T11:17:27.290Z,21.54
2017-05-16T11:18:27.313Z,21.88
2017-05-16T11:19:27.341Z,22.09
2017-05-16T11:20:27.368Z,22.21
2017-05-16T11:21:27.397Z,22.27
2017-05-16T11:22:27.432Z,22.52
2017-05-16T11:23:27.450Z,22.55
2017-05-16T11:24:27.482Z,22.76
2017-05-16T11:26:27.541Z,22.73
2017-05-16T11:27:27.263Z,22.51
2017-05-16T11:28:27.597Z,22.65
2017-05-16T11:29:27.625Z,22.95
2017-05-16T11:30:42.268Z,23.01
2017-05-16T11:31:27.683Z,23.07
2017-05-16T11:32:27.705Z,22.51
2017-05-16T11:33:27.734Z,22.35
2017-05-16T11:34:42.381Z,22.37
2017-05-16T11:35:27.491Z,22.17
2017-05-16T11:36:27.821Z,22.27
2017-05-16T11:37:27.544Z,22.61
2017-05-16T11:38:27.577Z,23.01
2017-05-16T11:39:27.904Z,22.98
2017-05-16T11:40:27.931Z,22.61
2017-05-16T11:43:42.637Z,23.31
2017-05-16T11:45:28.083Z,22.98
2017-05-16T11:46:28.100Z,23.02
2017-05-16T11:47:42.747Z,23.1
2017-05-16T11:48:27.853Z,23.2
2017-05-16T11:49:28.191Z,23.42
2017-05-16T11:50:42.833Z,22.88
2017-05-16T11:51:28.243Z,22.77
2017-05-16T11:52:28.272Z,22.6
2017-05-16T11:53:28.359Z,22.8
2017-05-16T11:54:28.326Z,23.09
2017-05-16T11:55:28.357Z,23.13
2017-05-16T11:56:28.386Z,23.2
2017-05-16T11:57:28.414Z,22.94
2017-05-16T11:58:43.063Z,22.27
2017-05-16T11:59:28.472Z,22.14
2017-05-16T12:00:28.499Z,22.12
2017-05-16T12:01:28.525Z,21.88
2017-05-16T12:02:28.553Z,21.86
2017-05-16T12:03:28.585Z,21.77
2017-05-16T12:04:28.611Z,21.83
2017-05-16T12:05:28.638Z,21.53
2017-05-16T12:06:43.285Z,21.52
2017-05-16T12:07:28.695Z,21.8
2017-05-16T12:08:28.724Z,22.02
2017-05-16T12:09:28.450Z,22.14
2017-05-16T12:10:28.473Z,22.42
2017-05-16T12:11:28.807Z,22.67
2017-05-16T12:13:28.864Z,23.25
2017-05-16T12:14:28.890Z,23.48
2017-05-16T12:15:28.920Z,23.68
2017-05-16T12:16:28.993Z,23.75
2017-05-16T12:17:28.974Z,23.78
2017-05-16T12:18:29.003Z,23.93
2017-05-16T12:19:29.034Z,24.09
2017-05-16T12:20:29.062Z,24.1
2017-05-16T12:21:29.086Z,24.13
2017-05-16T12:22:43.734Z,23.88
2017-05-16T12:23:29.143Z,23.88
2017-05-16T12:24:29.177Z,23.91
2017-05-16T12:25:29.200Z,23.94
2017-05-16T12:26:29.242Z,23.98
2017-05-16T12:27:29.266Z,24.1
2017-05-16T12:28:28.981Z,24.02
2017-05-16T12:29:29.318Z,23.8
2017-05-16T12:30:29.341Z,23.57
2017-05-16T12:32:29.399Z,23.23
2017-05-16T12:33:29.430Z,23.33
2017-05-16T12:34:29.454Z,23.38
2017-05-16T12:35:29.487Z,23.42
2017-05-16T12:36:29.512Z,23.39
2017-05-16T12:37:43.855Z,23.16
2017-05-16T12:38:29.571Z,23.2
2017-05-16T12:39:29.600Z,23.09
2017-05-16T12:40:29.625Z,23
2017-05-16T12:41:29.662Z,22.95
2017-05-16T12:42:29.682Z,22.8
2017-05-16T12:43:29.709Z,22.77
2017-05-16T12:44:29.788Z,22.72
2017-05-16T12:45:29.768Z,22.76
2017-05-16T12:46:29.797Z,22.76
2017-05-16T12:47:29.820Z,22.68
2017-05-16T12:48:29.562Z,22.52
2017-05-16T12:49:44.496Z,22.24
2017-05-16T12:50:29.909Z,22.09
2017-05-16T12:51:29.933Z,22.07
2017-05-16T12:52:29.962Z,22.05
2017-05-16T12:53:29.989Z,21.82
2017-05-16T12:54:30.020Z,21.71
2017-05-16T12:55:30.045Z,21.59
2017-05-16T12:56:30.078Z,21.52
2017-05-16T12:57:30.099Z,21.5
2017-05-16T12:58:30.129Z,21.49
2017-05-16T12:59:30.154Z,21.42
2017-05-16T13:00:30.181Z,21.31
2017-05-16T13:01:30.209Z,21.24
2017-05-16T13:02:30.236Z,21.17
2017-05-16T13:03:30.266Z,21.21
2017-05-16T13:04:30.294Z,21.14
2017-05-16T13:05:30.317Z,21.1
2017-05-16T13:06:30.347Z,21.07
2017-05-16T13:07:30.385Z,20.99
2017-05-16T13:08:30.096Z,20.89
2017-05-16T13:09:45.046Z,20.98
2017-05-16T13:10:30.456Z,21.01
2017-05-16T13:11:30.484Z,21.07
2017-05-16T13:12:30.514Z,21.09
2017-05-16T13:13:30.542Z,21.25
2017-05-16T13:14:30.566Z,21.32
2017-05-16T13:15:30.596Z,21.17
2017-05-16T13:16:30.620Z,21.21
2017-05-16T13:18:30.676Z,21.21
2017-05-16T13:20:30.727Z,21.04
2017-05-16T13:21:30.757Z,20.95
2017-05-16T13:22:30.793Z,21.01
2017-05-16T13:23:30.810Z,21.04
2017-05-16T13:24:30.550Z,21.12
2017-05-16T13:25:45.180Z,20.85
2017-05-16T13:26:30.892Z,20.64
2017-05-16T13:27:30.919Z,20.61
2017-05-16T13:28:30.948Z,20.7
2017-05-16T13:29:30.972Z,20.97
2017-05-16T13:30:31.000Z,20.95
2017-05-16T13:31:31.027Z,21.12
2017-05-16T13:32:31.054Z,21.06
2017-05-16T13:34:31.108Z,20.99
2017-05-16T13:35:31.138Z,20.98
2017-05-16T13:36:31.166Z,20.87
2017-05-16T13:37:45.809Z,20.95
2017-05-16T13:38:45.532Z,20.95
2017-05-16T13:39:31.245Z,21.1
2017-05-16T13:40:31.275Z,20.95
2017-05-16T13:41:45.918Z,20.94
2017-05-16T13:42:31.331Z,20.94
2017-05-16T13:43:31.355Z,21.12
2017-05-16T13:44:31.383Z,21.14
2017-05-16T13:45:31.407Z,21.12
2017-05-16T13:46:31.437Z,21.14
2017-05-16T13:47:31.462Z,21.24
2017-05-16T13:48:31.490Z,21.24
2017-05-16T13:49:31.517Z,21.37
2017-05-16T13:50:31.546Z,21.46
2017-05-16T13:51:31.572Z,21.38